createdAt,value
2018-07-17T06:08:11.798Z,9.43
2018-07-17T06:10:40.397Z,10.53
2018-07-17T06:13:09.022Z,9.38
2018-07-17T06:15:37.701Z,8.28
2018-07-17T06:18:06.307Z,9.08
2018-07-17T06:20:35.098Z,7.22
2018-07-17T06:23:04.080Z,7.22
2018-07-17T06:25:32.629Z,7.70
2018-07-17T06:28:01.846Z,7.33
2018-07-17T06:30:30.598Z,8.03
2018-07-17T06:32:59.327Z,9.53
2018-07-17T06:35:27.923Z,7.87
2018-07-17T06:37:56.539Z,8.25
2018-07-17T06:40:25.399Z,7.28
2018-07-17T06:42:54.278Z,10.72
2018-07-17T06:45:22.910Z,8.30
2018-07-17T06:47:51.622Z,6.08
2018-07-17T06:50:20.226Z,7.78
2018-07-17T06:52:48.862Z,7.60
2018-07-17T06:55:17.450Z,10.30
2018-07-17T06:57:46.030Z,6.90
2018-07-17T07:00:14.628Z,8.00
2018-07-17T07:02:43.257Z,6.75
2018-07-17T07:05:11.916Z,6.33
2018-07-17T07:07:42.560Z,10.53
2018-07-17T07:10:12.599Z,6.85
2018-07-17T07:12:42.672Z,6.97
2018-07-17T07:15:11.290Z,8.38
2018-07-17T07:17:40.391Z,10.00
2018-07-17T07:20:09.061Z,6.70
2018-07-17T07:22:38.586Z,8.93
2018-07-17T07:25:08.021Z,8.20
2018-07-17T07:27:37.591Z,11.78
2018-07-17T07:30:06.650Z,9.55
2018-07-17T07:32:36.266Z,8.88
2018-07-17T07:35:05.006Z,7.78
2018-07-17T07:37:35.081Z,5.67
2018-07-17T07:40:04.129Z,6.75
2018-07-17T07:42:33.624Z,5.50
2018-07-17T07:45:02.996Z,6.53
2018-07-17T07:47:32.540Z,7.90
2018-07-17T07:50:01.690Z,6.70
2018-07-17T07:52:30.479Z,8.93
2018-07-17T07:54:59.106Z,9.00
2018-07-17T07:57:28.275Z,7.78
2018-07-17T07:59:56.813Z,7.58
2018-07-17T08:02:25.392Z,8.98
2018-07-17T08:04:54.954Z,8.73
2018-07-17T08:07:25.853Z,8.10
2018-07-17T08:09:54.353Z,10.00
2018-07-17T08:12:23.590Z,12.10
2018-07-17T08:14:52.209Z,8.53
2018-07-17T08:17:21.382Z,9.28
2018-07-17T08:19:50.888Z,7.72
2018-07-17T08:22:20.650Z,7.75
2018-07-17T08:24:50.448Z,7.40
2018-07-17T08:27:18.661Z,8.93
2018-07-17T08:29:49.214Z,8.58
2018-07-17T08:32:17.818Z,5.85
2018-07-17T08:34:46.824Z,7.03
2018-07-17T08:37:17.914Z,9.23
2018-07-17T08:39:47.101Z,6.47
2018-07-17T08:42:18.262Z,7.78
2018-07-17T08:44:47.712Z,7.15
2018-07-17T08:47:16.244Z,10.45
2018-07-17T08:49:45.020Z,7.33
2018-07-17T08:52:13.688Z,9.90
2018-07-17T08:54:42.298Z,7.25
2018-07-17T08:57:11.485Z,10.25
2018-07-17T08:59:40.288Z,10.25
2018-07-17T09:02:10.080Z,9.18
2018-07-17T09:04:38.679Z,8.40
2018-07-17T09:07:07.228Z,9.35
2018-07-17T09:09:35.817Z,8.10
2018-07-17T09:12:04.448Z,7.85
2018-07-17T09:14:33.476Z,14.60
2018-07-17T09:17:02.616Z,7.03
2018-07-17T09:19:31.142Z,9.00
2018-07-17T09:21:59.776Z,9.10
2018-07-17T09:24:29.861Z,8.80
2018-07-17T09:26:59.744Z,9.48
2018-07-17T09:29:28.567Z,10.28
2018-07-17T09:31:58.111Z,9.80
2018-07-17T09:34:26.581Z,6.58
2018-07-17T09:36:57.120Z,11.90
2018-07-17T09:39:25.965Z,9.05
2018-07-17T09:41:56.158Z,8.58
2018-07-17T09:44:26.053Z,8.58
2018-07-17T09:46:54.555Z,8.65
2018-07-17T09:49:23.423Z,9.00
2018-07-17T09:51:52.037Z,7.37
2018-07-17T09:54:20.708Z,10.00
2018-07-17T09:56:49.251Z,7.83
2018-07-17T09:59:17.879Z,13.13
2018-07-17T10:01:52.658Z,8.80
2018-07-17T10:04:22.994Z,11.95
2018-07-17T10:06:51.578Z,7.58
2018-07-17T10:09:20.799Z,6.90
2018-07-17T10:11:51.437Z,5.67
2018-07-17T10:14:21.631Z,6.75
2018-07-17T10:16:50.776Z,7.22
2018-07-17T10:19:20.363Z,7.35
2018-07-17T10:21:49.022Z,6.12
2018-07-17T10:24:17.610Z,4.80
2018-07-17T10:26:46.239Z,7.08
2018-07-17T10:29:15.445Z,5.03
2018-07-17T10:31:45.389Z,4.33
2018-07-17T10:34:13.991Z,4.70
2018-07-17T10:36:42.593Z,4.72
2018-07-17T10:39:12.438Z,4.67
2018-07-17T10:41:41.124Z,5.80
2018-07-17T10:44:11.866Z,4.72
2018-07-17T10:46:40.943Z,7.67
2018-07-17T10:49:10.460Z,4.80
2018-07-17T10:51:40.022Z,7.08
2018-07-17T10:54:08.841Z,5.75
2018-07-17T10:56:39.277Z,4.70
2018-07-17T10:59:07.782Z,3.95
2018-07-17T11:01:36.962Z,3.75
2018-07-17T11:04:06.454Z,5.17
2018-07-17T11:06:35.267Z,5.08
2018-07-17T11:09:05.168Z,6.70
2018-07-17T11:11:33.977Z,6.20
2018-07-17T11:14:02.474Z,5.37
2018-07-17T11:16:32.306Z,4.85
2018-07-17T11:19:00.910Z,6.08
2018-07-17T11:21:29.692Z,5.55
2018-07-17T11:23:59.620Z,5.25
2018-07-17T11:26:28.290Z,3.75
2018-07-17T11:28:56.833Z,4.58
2018-07-17T11:31:25.995Z,3.72
2018-07-17T11:33:56.017Z,4.28
2018-07-17T11:36:24.580Z,6.25
2018-07-17T11:38:53.287Z,4.00
2018-07-17T11:41:21.920Z,6.15
2018-07-17T11:43:51.198Z,4.95
2018-07-17T11:46:20.329Z,4.65
2018-07-17T11:48:49.632Z,4.28
2018-07-17T11:51:19.098Z,3.50
2018-07-17T11:53:47.594Z,5.53
2018-07-17T11:56:16.826Z,4.90
2018-07-17T11:58:45.711Z,4.85
2018-07-17T12:01:14.287Z,4.92
2018-07-17T12:03:42.888Z,3.85
2018-07-17T12:06:12.400Z,4.33
2018-07-17T12:08:42.954Z,4.30
2018-07-17T12:11:11.597Z,4.53
2018-07-17T12:13:40.336Z,5.47
2018-07-17T12:16:09.519Z,5.28
2018-07-17T12:18:40.974Z,4.33
2018-07-17T12:21:10.824Z,3.95
2018-07-17T12:23:39.527Z,4.95
2018-07-17T12:26:11.034Z,5.05
2018-07-17T12:28:39.563Z,3.80
2018-07-17T12:31:08.099Z,5.12
2018-07-17T12:33:36.691Z,5.47
2018-07-17T12:36:06.174Z,4.70
2018-07-17T12:38:35.653Z,4.95
2018-07-17T12:41:04.340Z,5.85
2018-07-17T12:43:32.961Z,6.03
2018-07-17T12:46:02.555Z,6.78
2018-07-17T12:48:31.776Z,8.05
2018-07-17T12:51:00.283Z,7.00
2018-07-17T12:53:29.976Z,9.33
2018-07-17T12:55:59.147Z,4.40
2018-07-17T12:58:28.634Z,4.87
2018-07-17T13:00:57.156Z,4.87
2018-07-17T13:03:27.535Z,6.20
2018-07-17T13:05:56.209Z,4.90
2018-07-17T13:08:25.173Z,4.17
2018-07-17T13:10:54.101Z,4.90
2018-07-17T13:13:22.738Z,3.80
2018-07-17T13:15:52.238Z,4.62
2018-07-17T13:18:20.819Z,3.87
2018-07-17T13:20:50.618Z,4.60
2018-07-17T13:23:19.217Z,4.45
2018-07-17T13:25:47.782Z,5.95
2018-07-17T13:28:16.334Z,7.35
2018-07-17T13:30:44.888Z,6.97
2018-07-17T13:33:13.824Z,5.80
2018-07-17T13:35:42.900Z,4.22
2018-07-17T13:38:12.248Z,4.12
2018-07-17T13:40:40.839Z,4.50
2018-07-17T13:43:10.158Z,5.87
2018-07-17T13:45:38.681Z,4.40
2018-07-17T13:48:07.278Z,3.02
2018-07-17T13:50:35.809Z,2.87
2018-07-17T13:53:04.427Z,3.20
2018-07-17T13:55:33.162Z,3.80
2018-07-17T13:58:01.762Z,4.83
2018-07-17T14:00:31.051Z,5.70
2018-07-17T14:03:00.474Z,7.20
2018-07-17T14:05:29.309Z,7.05
2018-07-17T14:07:57.945Z,5.80
2018-07-17T14:10:26.529Z,7.20
2018-07-17T14:12:55.220Z,12.25
2018-07-17T14:15:25.265Z,20.90
2018-07-17T14:17:55.318Z,32.75
2018-07-17T14:20:23.925Z,49.13
2018-07-17T14:22:53.532Z,57.78
2018-07-17T14:25:22.829Z,19.07
2018-07-17T14:27:52.017Z,11.75
2018-07-17T14:30:20.669Z,22.85
2018-07-17T14:32:50.370Z,35.80
2018-07-17T14:35:20.916Z,50.12
2018-07-17T14:37:50.136Z,61.50
2018-07-17T14:40:18.825Z,68.67
2018-07-17T14:42:48.038Z,81.37
2018-07-17T14:45:16.691Z,86.00
2018-07-17T14:47:46.814Z,97.47
2018-07-17T14:50:15.331Z,106.95
2018-07-17T14:52:44.560Z,110.32
2018-07-17T14:55:13.162Z,106.47
2018-07-17T14:57:44.340Z,89.40
2018-07-17T15:00:12.861Z,21.77
2018-07-17T15:02:41.470Z,22.95
2018-07-17T15:05:11.548Z,27.32
2018-07-17T15:07:40.578Z,25.23
2018-07-17T15:10:09.520Z,31.77
2018-07-17T15:12:38.379Z,36.25
2018-07-17T15:15:07.392Z,18.90
2018-07-17T15:17:37.511Z,22.37
2018-07-17T15:20:07.704Z,18.00
2018-07-17T15:22:36.907Z,4.92
2018-07-17T15:25:06.395Z,6.75
2018-07-17T15:27:35.024Z,4.30
2018-07-17T15:30:05.599Z,4.50
2018-07-17T15:32:33.845Z,5.75
2018-07-17T15:35:03.253Z,7.42
2018-07-17T15:37:32.388Z,9.05
2018-07-17T15:40:01.978Z,10.65
2018-07-17T15:42:30.641Z,8.58
2018-07-17T15:45:00.658Z,6.00
2018-07-17T15:47:30.565Z,5.85
2018-07-17T15:49:59.872Z,5.50
2018-07-17T15:52:29.561Z,4.40
2018-07-17T15:54:58.175Z,5.25
2018-07-17T15:57:27.738Z,6.67
2018-07-17T15:59:57.709Z,7.65
2018-07-17T16:02:27.456Z,8.50
2018-07-17T16:04:57.433Z,9.55
2018-07-17T16:07:27.409Z,10.55
2018-07-17T16:09:56.952Z,11.15
2018-07-17T16:12:27.077Z,11.50
2018-07-17T16:14:57.398Z,10.65
2018-07-17T16:17:28.684Z,11.12
2018-07-17T16:19:57.874Z,11.68
2018-07-17T16:22:27.898Z,12.30
2018-07-17T16:24:56.537Z,12.82
2018-07-17T16:27:26.457Z,11.55
2018-07-17T16:29:55.936Z,5.25
2018-07-17T16:32:24.572Z,7.67
2018-07-17T16:34:53.266Z,8.05
2018-07-17T16:37:22.837Z,8.20
2018-07-17T16:39:52.544Z,7.95
2018-07-17T16:42:21.355Z,7.78
2018-07-17T16:44:49.966Z,6.22
2018-07-17T16:47:19.898Z,6.83
2018-07-17T16:49:48.502Z,6.78
2018-07-17T16:52:17.417Z,7.10
2018-07-17T16:54:46.009Z,6.28
2018-07-17T16:57:14.578Z,6.50
2018-07-17T16:59:43.791Z,6.20
2018-07-17T17:02:14.743Z,5.95
2018-07-17T17:06:30.460Z,4.87
2018-07-17T17:09:00.069Z,4.17
2018-07-17T17:11:29.344Z,3.98
2018-07-17T17:13:58.967Z,6.72
2018-07-17T17:16:27.519Z,4.15
2018-07-17T17:18:56.529Z,5.03
2018-07-17T17:21:25.224Z,4.83
2018-07-17T17:23:56.352Z,4.40
2018-07-17T17:26:24.952Z,4.25
2018-07-17T17:28:53.481Z,3.98
2018-07-17T17:31:22.160Z,4.85
2018-07-17T17:33:51.391Z,4.05
2018-07-17T17:36:20.103Z,5.00
2018-07-17T17:38:48.634Z,7.72
2018-07-17T17:41:17.257Z,6.20
2018-07-17T17:43:45.863Z,5.72
2018-07-17T17:46:14.461Z,6.00
2018-07-17T17:48:43.477Z,5.25
2018-07-17T17:51:12.048Z,4.55
2018-07-17T17:53:40.627Z,4.55
2018-07-17T17:56:09.189Z,5.00
2018-07-17T17:58:37.892Z,5.85
2018-07-17T18:01:06.533Z,7.37
2018-07-17T18:03:35.154Z,5.87
2018-07-17T18:06:03.713Z,6.72
2018-07-17T18:08:32.248Z,6.10
2018-07-17T18:11:00.989Z,7.50
2018-07-17T18:13:29.886Z,4.75
2018-07-17T18:15:58.486Z,4.78
2018-07-17T18:18:26.797Z,4.65
2018-07-17T18:20:55.355Z,5.40
2018-07-17T18:23:24.238Z,5.67
2018-07-17T18:25:52.896Z,6.42
2018-07-17T18:28:22.201Z,4.70
2018-07-17T18:30:50.924Z,4.70
2018-07-17T18:33:19.539Z,6.92
2018-07-17T18:35:48.187Z,6.65
2018-07-17T18:38:16.742Z,4.87
2018-07-17T18:40:45.499Z,6.53
2018-07-17T18:43:14.854Z,5.30
2018-07-17T18:45:45.140Z,6.33
2018-07-17T18:48:15.408Z,5.75
2018-07-17T18:50:46.456Z,7.03
2018-07-17T18:53:16.797Z,4.92
2018-07-17T18:55:47.578Z,4.58
2018-07-17T18:58:17.980Z,4.37
2018-07-17T19:00:46.564Z,5.22
2018-07-17T19:03:15.843Z,7.17
2018-07-17T19:05:45.373Z,6.97
2018-07-17T19:08:14.109Z,8.45
2018-07-17T19:10:44.421Z,7.00
2018-07-17T19:13:13.260Z,9.68
2018-07-17T19:15:44.773Z,7.40
2018-07-17T19:18:15.641Z,9.23
2018-07-17T19:20:46.006Z,10.03
2018-07-17T19:23:16.713Z,6.97
2018-07-17T19:25:46.677Z,6.53
2018-07-17T19:28:17.767Z,7.67
2018-07-17T19:30:47.230Z,8.58
2018-07-17T19:33:20.193Z,6.62
2018-07-17T19:35:49.052Z,9.60
2018-07-17T19:38:18.890Z,8.18
2018-07-17T19:40:53.726Z,8.35
2018-07-17T19:43:26.221Z,7.75
2018-07-17T19:45:55.320Z,9.53
2018-07-17T19:48:25.364Z,8.53
2018-07-17T19:50:54.341Z,6.83
2018-07-17T19:53:26.777Z,8.70
2018-07-17T19:56:05.047Z,8.05
2018-07-17T19:58:34.136Z,7.42
2018-07-17T20:01:04.133Z,7.25
2018-07-17T20:03:36.270Z,7.10
2018-07-17T20:06:08.879Z,4.87
2018-07-17T20:08:38.296Z,9.85
2018-07-17T20:11:11.584Z,8.18
2018-07-17T20:13:44.901Z,6.53
2018-07-17T20:16:14.722Z,8.68
2018-07-17T20:18:45.600Z,7.00
2018-07-17T20:21:15.289Z,9.25
2018-07-17T20:23:46.448Z,8.88
2018-07-17T20:26:17.407Z,10.95
2018-07-17T20:28:48.962Z,14.40
2018-07-17T20:31:17.757Z,7.00
2018-07-17T20:33:46.458Z,6.17
2018-07-17T20:36:16.930Z,5.95
2018-07-17T20:38:47.442Z,8.90
2018-07-17T20:41:20.473Z,10.75
2018-07-17T20:43:49.962Z,8.25
2018-07-17T20:46:21.528Z,6.83
2018-07-17T20:48:53.177Z,6.72
2018-07-17T20:51:23.387Z,10.65
2018-07-17T20:53:54.731Z,9.10
2018-07-17T20:56:25.011Z,8.70
2018-07-17T20:58:55.628Z,7.58
2018-07-17T21:01:24.271Z,9.93
2018-07-17T21:03:52.881Z,5.75
2018-07-17T21:06:21.406Z,10.03
2018-07-17T21:08:49.873Z,6.75
2018-07-17T21:11:18.352Z,6.15
2018-07-17T21:13:47.672Z,6.72
2018-07-17T21:16:16.182Z,10.03
2018-07-17T21:18:44.768Z,8.90
2018-07-17T21:21:13.289Z,8.15
2018-07-17T21:23:41.949Z,6.75
2018-07-17T21:26:10.462Z,7.05
2018-07-17T21:28:39.017Z,8.78
2018-07-17T21:31:08.556Z,5.80
2018-07-17T21:33:37.064Z,8.10
2018-07-17T21:36:05.576Z,5.95
2018-07-17T21:38:34.108Z,6.78
2018-07-17T21:41:02.598Z,10.00
2018-07-17T21:43:31.195Z,9.18
2018-07-17T21:45:59.694Z,11.08
2018-07-17T21:48:29.149Z,7.17
2018-07-17T21:51:00.490Z,8.35
2018-07-17T21:53:39.092Z,10.13
2018-07-17T21:56:08.849Z,8.23
2018-07-17T21:58:40.737Z,9.10
2018-07-17T22:01:11.353Z,8.10
2018-07-17T22:03:42.258Z,9.78
2018-07-17T22:06:13.062Z,7.92
2018-07-17T22:08:44.296Z,10.18
2018-07-17T22:11:12.971Z,8.80
2018-07-17T22:13:41.687Z,8.58
2018-07-17T22:16:10.958Z,8.98
2018-07-17T22:18:40.750Z,10.03
2018-07-17T22:21:11.576Z,10.08
2018-07-17T22:23:42.751Z,10.32
2018-07-17T22:26:14.518Z,8.60
2018-07-17T22:28:46.023Z,8.85
2018-07-17T22:31:14.627Z,9.08
2018-07-17T22:33:45.471Z,9.00
2018-07-17T22:36:16.319Z,8.48
2018-07-17T22:38:45.732Z,8.73
2018-07-17T22:41:17.101Z,8.28
2018-07-17T22:43:47.334Z,7.65
2018-07-17T22:46:16.950Z,12.13
2018-07-17T22:48:47.128Z,8.70
